createdAt,value
2019-01-09T00:01:32.105Z,10.10
2019-01-09T00:04:01.319Z,10.10
2019-01-09T00:06:29.374Z,10.20
2019-01-09T00:08:57.547Z,10.20
2019-01-09T00:11:25.613Z,10.20
2019-01-09T00:13:53.592Z,10.30
2019-01-09T00:16:21.867Z,10.30
2019-01-09T00:18:49.835Z,10.30
2019-01-09T00:21:17.877Z,10.40
2019-01-09T00:23:45.853Z,10.40
2019-01-09T00:26:13.848Z,10.40
2019-01-09T00:28:41.919Z,10.40
2019-01-09T00:31:09.990Z,10.40
2019-01-09T00:33:38.267Z,10.40
2019-01-09T00:36:06.422Z,10.50
2019-01-09T00:38:34.482Z,10.40
2019-01-09T00:41:02.584Z,10.40
2019-01-09T00:43:30.530Z,10.40
2019-01-09T00:45:58.568Z,10.40
2019-01-09T00:48:26.906Z,10.30
2019-01-09T00:50:55.179Z,10.20
2019-01-09T00:53:23.120Z,10.10
2019-01-09T00:55:51.424Z,10.10
2019-01-09T00:58:19.704Z,10.00
2019-01-09T01:00:47.773Z,10.00
2019-01-09T01:03:15.950Z,10.00
2019-01-09T01:05:46.212Z,10.00
2019-01-09T01:08:13.526Z,10.00
2019-01-09T01:10:41.700Z,10.00
2019-01-09T01:13:09.748Z,10.00
2019-01-09T01:15:37.942Z,10.00
2019-01-09T01:18:06.111Z,10.00
2019-01-09T01:20:35.462Z,10.00
2019-01-09T01:23:03.494Z,10.00
2019-01-09T01:25:31.542Z,10.00
2019-01-09T01:27:59.534Z,10.00
2019-01-09T01:30:28.703Z,10.00
2019-01-09T01:32:56.804Z,9.90
2019-01-09T01:35:24.877Z,9.90
2019-01-09T01:37:52.820Z,9.90
2019-01-09T01:40:20.915Z,10.00
2019-01-09T01:42:50.611Z,10.00
2019-01-09T01:45:18.594Z,10.00
2019-01-09T01:47:46.636Z,10.00
2019-01-09T01:50:14.640Z,9.90
2019-01-09T01:52:42.579Z,10.00
2019-01-09T01:55:10.867Z,10.00
2019-01-09T01:57:39.943Z,10.00
2019-01-09T02:00:08.128Z,10.10
2019-01-09T02:02:37.950Z,10.00
2019-01-09T02:05:06.143Z,10.00
2019-01-09T02:07:43.325Z,10.00
2019-01-09T02:10:11.395Z,10.00
2019-01-09T02:12:39.752Z,10.00
2019-01-09T02:15:07.726Z,10.00
2019-01-09T02:17:35.713Z,10.00
2019-01-09T02:20:03.892Z,9.90
2019-01-09T02:22:32.167Z,9.90
2019-01-09T02:25:00.340Z,9.90
2019-01-09T02:27:28.309Z,9.90
2019-01-09T02:29:56.384Z,9.90
2019-01-09T02:32:25.952Z,9.90
2019-01-09T02:34:54.164Z,9.80
2019-01-09T02:37:22.133Z,9.80
2019-01-09T02:39:50.286Z,9.80
2019-01-09T02:42:18.275Z,9.80
2019-01-09T02:44:46.453Z,9.80
2019-01-09T02:47:14.625Z,9.80
2019-01-09T02:49:42.596Z,9.80
2019-01-09T02:52:10.535Z,9.80
2019-01-09T02:54:38.609Z,9.70
2019-01-09T02:57:06.711Z,9.80
2019-01-09T02:59:36.859Z,9.70
2019-01-09T03:02:04.901Z,9.70
2019-01-09T03:04:32.971Z,9.60
2019-01-09T03:07:01.019Z,9.60
2019-01-09T03:09:29.632Z,9.70
2019-01-09T03:11:57.677Z,9.70
2019-01-09T03:14:25.676Z,9.70
2019-01-09T03:16:53.717Z,9.70
2019-01-09T03:19:21.709Z,9.60
2019-01-09T03:21:49.652Z,9.60
2019-01-09T03:24:18.635Z,9.60
2019-01-09T03:26:46.854Z,9.60
2019-01-09T03:29:14.902Z,9.60
2019-01-09T03:31:42.819Z,9.60
2019-01-09T03:34:11.161Z,9.60
2019-01-09T03:36:39.113Z,9.60
2019-01-09T03:39:07.103Z,9.60
2019-01-09T03:41:35.069Z,9.60
2019-01-09T03:44:03.347Z,9.50
2019-01-09T03:46:31.626Z,9.60
2019-01-09T03:48:59.697Z,9.60
2019-01-09T03:51:27.773Z,9.60
2019-01-09T03:53:55.736Z,9.60
2019-01-09T03:56:23.810Z,9.60
2019-01-09T03:58:52.373Z,9.60
2019-01-09T04:01:20.441Z,9.70
2019-01-09T04:03:48.638Z,9.70
2019-01-09T04:06:16.686Z,9.70
2019-01-09T04:08:46.625Z,9.80
2019-01-09T04:11:14.575Z,9.90
2019-01-09T04:13:42.772Z,10.00
2019-01-09T04:16:11.357Z,10.30
2019-01-09T04:18:39.530Z,10.20
2019-01-09T04:21:07.574Z,10.20
2019-01-09T04:23:35.761Z,10.10
2019-01-09T04:26:03.746Z,10.20
2019-01-09T04:28:31.686Z,10.10
2019-01-09T04:30:59.783Z,10.00
2019-01-09T04:33:27.860Z,9.80
2019-01-09T04:35:56.030Z,9.80
2019-01-09T04:38:24.003Z,9.80
2019-01-09T04:40:52.488Z,9.70
2019-01-09T04:43:20.641Z,9.60
2019-01-09T04:45:49.758Z,9.60
2019-01-09T04:48:17.797Z,9.50
2019-01-09T04:50:45.791Z,9.40
2019-01-09T04:53:14.072Z,9.40
2019-01-09T04:55:42.037Z,9.30
2019-01-09T04:58:10.007Z,9.20
2019-01-09T05:00:38.387Z,9.10
2019-01-09T05:03:06.333Z,9.10
2019-01-09T05:05:35.480Z,9.00
2019-01-09T05:08:03.937Z,8.90
2019-01-09T05:10:32.392Z,8.80
2019-01-09T05:13:00.463Z,8.70
2019-01-09T05:15:28.558Z,8.60
2019-01-09T05:17:58.378Z,8.60
2019-01-09T05:20:26.550Z,8.60
2019-01-09T05:22:54.540Z,8.50
2019-01-09T05:25:23.613Z,8.40
2019-01-09T05:27:51.788Z,8.40
2019-01-09T05:30:21.720Z,8.40
2019-01-09T05:32:49.751Z,8.30
2019-01-09T05:35:19.821Z,8.30
2019-01-09T05:37:47.738Z,8.30
2019-01-09T05:40:16.143Z,8.40
2019-01-09T05:42:44.390Z,8.30
2019-01-09T05:45:12.383Z,8.20
2019-01-09T05:47:40.562Z,8.10
2019-01-09T05:50:08.561Z,8.10
2019-01-09T05:52:38.807Z,8.10
2019-01-09T05:55:07.024Z,8.00
2019-01-09T05:57:35.199Z,8.00
2019-01-09T06:00:03.277Z,8.00
2019-01-09T06:02:33.377Z,8.00
2019-01-09T06:05:01.147Z,8.00
2019-01-09T06:07:29.204Z,8.10
2019-01-09T06:09:57.299Z,8.00
2019-01-09T06:12:25.473Z,7.90
2019-01-09T06:14:55.288Z,7.90
2019-01-09T06:17:23.229Z,7.90
2019-01-09T06:19:51.227Z,7.90
2019-01-09T06:22:19.398Z,7.90
2019-01-09T06:24:47.573Z,8.00
2019-01-09T06:27:15.545Z,7.90
2019-01-09T06:29:43.614Z,7.90
2019-01-09T06:32:11.585Z,7.90
2019-01-09T06:34:39.553Z,7.90
2019-01-09T06:37:07.639Z,7.80
2019-01-09T06:39:36.733Z,7.90
2019-01-09T06:42:04.690Z,7.80
2019-01-09T06:44:33.755Z,7.80
2019-01-09T06:47:01.840Z,7.80
2019-01-09T06:49:31.107Z,7.80
2019-01-09T06:51:59.128Z,7.70
2019-01-09T06:54:29.159Z,7.70
2019-01-09T06:56:57.216Z,7.80
2019-01-09T06:59:25.493Z,7.80
2019-01-09T07:01:53.668Z,7.80
2019-01-09T07:04:21.742Z,7.80
2019-01-09T07:06:49.823Z,7.80
2019-01-09T07:09:17.694Z,7.80
2019-01-09T07:11:45.755Z,7.80
2019-01-09T07:14:13.721Z,7.80
2019-01-09T07:16:41.894Z,7.80
2019-01-09T07:19:09.943Z,7.90
2019-01-09T07:21:45.464Z,7.90
2019-01-09T07:24:09.372Z,7.90
2019-01-09T07:26:38.076Z,8.00
2019-01-09T07:29:06.322Z,8.00
2019-01-09T07:31:34.626Z,8.00
2019-01-09T07:34:02.698Z,8.00
2019-01-09T07:36:32.196Z,8.00
2019-01-09T07:39:00.172Z,8.10
2019-01-09T07:41:28.142Z,8.30
2019-01-09T07:43:56.081Z,8.70
2019-01-09T07:46:24.080Z,9.40
2019-01-09T07:48:52.154Z,10.20
2019-01-09T07:51:20.093Z,10.90
2019-01-09T07:53:48.091Z,11.50
2019-01-09T07:56:16.204Z,12.00
2019-01-09T07:58:45.441Z,12.60
2019-01-09T08:01:13.426Z,13.30
2019-01-09T08:03:41.506Z,14.00
2019-01-09T08:06:10.577Z,14.60
2019-01-09T08:08:38.547Z,15.20
2019-01-09T08:11:06.646Z,15.90
2019-01-09T08:13:34.599Z,16.40
2019-01-09T08:16:03.857Z,17.00
2019-01-09T08:18:31.991Z,17.60
2019-01-09T08:21:05.287Z,18.20
2019-01-09T08:23:29.849Z,18.50
2019-01-09T08:25:57.838Z,19.00
2019-01-09T08:28:25.786Z,19.30
2019-01-09T08:30:53.778Z,19.60
2019-01-09T08:33:21.745Z,19.70
2019-01-09T08:35:50.061Z,20.20
2019-01-09T08:38:18.183Z,20.60
2019-01-09T08:40:46.473Z,21.10
2019-01-09T08:43:14.627Z,21.40
2019-01-09T08:45:42.811Z,21.50
2019-01-09T08:48:11.001Z,22.10
2019-01-09T08:50:39.067Z,22.60
2019-01-09T08:53:07.141Z,22.80
2019-01-09T08:55:35.111Z,22.90
2019-01-09T08:58:02.997Z,22.80
2019-01-09T09:00:31.356Z,23.00
2019-01-09T09:02:59.432Z,23.30
2019-01-09T09:05:27.371Z,23.70
2019-01-09T09:07:55.575Z,24.20
2019-01-09T09:10:23.541Z,24.30
2019-01-09T09:12:51.489Z,24.60
2019-01-09T09:15:19.451Z,25.00
2019-01-09T09:17:47.537Z,25.40
2019-01-09T09:20:15.634Z,25.80
2019-01-09T09:22:43.608Z,26.00
2019-01-09T09:25:11.772Z,25.50
2019-01-09T09:27:39.735Z,25.40
2019-01-09T09:30:07.943Z,25.30
2019-01-09T09:32:36.086Z,25.40
2019-01-09T09:35:04.056Z,25.90
2019-01-09T09:37:32.027Z,26.20
2019-01-09T09:39:59.968Z,26.40
2019-01-09T09:42:28.462Z,26.80
2019-01-09T09:44:56.413Z,27.10
2019-01-09T09:47:24.497Z,27.10
2019-01-09T09:49:52.562Z,26.60
2019-01-09T09:52:20.767Z,26.60
2019-01-09T09:54:50.434Z,26.60
2019-01-09T09:57:18.626Z,26.90
2019-01-09T09:59:46.821Z,27.10
2019-01-09T10:02:14.999Z,27.30
2019-01-09T10:04:42.966Z,27.30
2019-01-09T10:07:11.193Z,27.40
2019-01-09T10:09:39.191Z,27.60
2019-01-09T10:12:07.159Z,27.60
2019-01-09T10:14:35.239Z,28.00
2019-01-09T10:17:03.641Z,28.20
2019-01-09T10:19:31.601Z,28.30
2019-01-09T10:21:59.775Z,28.90
2019-01-09T10:24:27.743Z,29.40
2019-01-09T10:26:56.020Z,29.20
2019-01-09T10:29:24.095Z,29.10
2019-01-09T10:31:53.085Z,29.40
2019-01-09T10:34:21.140Z,29.60
2019-01-09T10:36:49.206Z,29.90
2019-01-09T10:39:17.201Z,30.90
2019-01-09T10:41:45.172Z,31.00
2019-01-09T10:44:18.819Z,30.80
2019-01-09T10:46:43.052Z,30.70
2019-01-09T10:49:11.439Z,30.80
2019-01-09T10:51:39.501Z,30.70
2019-01-09T10:54:07.482Z,31.10
2019-01-09T10:56:35.543Z,31.40
2019-01-09T10:59:03.457Z,31.50
2019-01-09T11:01:33.308Z,32.10
2019-01-09T11:04:01.404Z,32.40
2019-01-09T11:06:29.445Z,32.90
2019-01-09T11:08:57.954Z,33.00
2019-01-09T11:11:26.312Z,32.60
2019-01-09T11:13:54.301Z,32.20
2019-01-09T11:16:22.241Z,31.40
2019-01-09T11:18:50.238Z,31.20
2019-01-09T11:21:18.207Z,31.20
2019-01-09T11:23:47.405Z,30.50
2019-01-09T11:26:17.178Z,29.80
2019-01-09T11:28:45.290Z,28.60
2019-01-09T11:31:13.445Z,27.40
2019-01-09T11:33:41.509Z,26.30
2019-01-09T11:36:09.608Z,25.20
2019-01-09T11:38:38.531Z,23.80
2019-01-09T11:41:06.550Z,22.60
2019-01-09T11:43:34.656Z,21.60
2019-01-09T11:46:02.691Z,20.60
2019-01-09T11:48:32.250Z,20.00
2019-01-09T11:51:00.393Z,19.60
2019-01-09T11:53:28.645Z,19.20
2019-01-09T11:55:58.448Z,19.00
2019-01-09T11:58:26.495Z,18.80
2019-01-09T12:00:54.818Z,18.70
2019-01-09T12:03:24.619Z,18.70
2019-01-09T12:05:52.615Z,18.60
2019-01-09T12:08:20.711Z,18.50
2019-01-09T12:10:48.884Z,18.50
2019-01-09T12:13:16.905Z,18.30
2019-01-09T12:15:44.902Z,18.30
2019-01-09T12:18:12.845Z,18.30
2019-01-09T12:20:40.814Z,18.10
2019-01-09T12:23:08.809Z,18.20
2019-01-09T12:25:37.711Z,18.10
2019-01-09T12:28:06.879Z,18.10
2019-01-09T12:30:34.868Z,18.20
2019-01-09T12:33:02.838Z,18.50
2019-01-09T12:35:30.799Z,18.60
2019-01-09T12:37:58.878Z,18.80
2019-01-09T12:40:26.849Z,18.90
2019-01-09T12:42:54.822Z,19.20
2019-01-09T12:45:22.863Z,19.60
2019-01-09T12:47:50.960Z,20.00
2019-01-09T12:50:19.430Z,20.50
2019-01-09T12:52:47.390Z,21.20
2019-01-09T12:55:15.484Z,21.90
2019-01-09T12:57:44.766Z,22.30
2019-01-09T13:00:12.958Z,22.60
2019-01-09T13:02:41.326Z,22.60
2019-01-09T13:05:09.410Z,22.80
2019-01-09T13:07:37.583Z,23.70
2019-01-09T13:10:07.236Z,23.70
2019-01-09T13:12:35.286Z,24.40
2019-01-09T13:15:03.335Z,24.90
2019-01-09T13:17:31.510Z,24.60
2019-01-09T13:19:59.583Z,24.30
2019-01-09T13:22:27.753Z,23.10
2019-01-09T13:24:56.032Z,21.40
2019-01-09T13:27:24.001Z,20.00
2019-01-09T13:29:51.942Z,18.60
2019-01-09T13:32:19.940Z,17.50
2019-01-09T13:34:47.917Z,16.80
2019-01-09T13:37:15.983Z,16.30
2019-01-09T13:39:43.921Z,16.10
2019-01-09T13:42:11.922Z,15.70
2019-01-09T13:44:41.608Z,15.40
2019-01-09T13:47:09.599Z,15.10
2019-01-09T13:49:37.642Z,14.90
2019-01-09T13:52:05.646Z,14.80
2019-01-09T13:54:33.610Z,14.60
2019-01-09T13:57:01.579Z,14.40
2019-01-09T13:59:29.628Z,14.40
2019-01-09T14:01:57.595Z,14.20
2019-01-09T14:04:27.311Z,14.20
2019-01-09T14:06:55.404Z,14.10
2019-01-09T14:09:24.883Z,14.10
2019-01-09T14:11:52.878Z,14.10
2019-01-09T14:14:21.925Z,14.00
2019-01-09T14:16:49.918Z,13.90
2019-01-09T14:19:19.609Z,13.80
2019-01-09T14:21:47.832Z,13.80
2019-01-09T14:24:17.616Z,13.80
2019-01-09T14:26:45.713Z,13.80
2019-01-09T14:29:14.705Z,13.90
2019-01-09T14:31:42.682Z,13.80
2019-01-09T14:34:10.749Z,13.70
2019-01-09T14:36:38.793Z,13.60
2019-01-09T14:39:06.764Z,13.60
2019-01-09T14:41:34.831Z,13.60
2019-01-09T14:44:02.809Z,13.60
2019-01-09T14:46:30.782Z,13.60
2019-01-09T14:48:58.871Z,13.60
2019-01-09T14:51:27.119Z,13.60
2019-01-09T14:53:55.116Z,13.60
2019-01-09T14:56:23.087Z,13.60
2019-01-09T14:58:51.259Z,13.70
2019-01-09T15:01:19.230Z,13.70
2019-01-09T15:03:47.180Z,13.60
2019-01-09T15:06:15.195Z,13.60
2019-01-09T15:08:43.113Z,13.50
2019-01-09T15:11:11.093Z,13.50
2019-01-09T15:13:39.078Z,13.50
2019-01-09T15:16:07.017Z,13.50
2019-01-09T15:18:35.119Z,13.50
2019-01-09T15:21:03.087Z,13.40
2019-01-09T15:23:31.162Z,13.40
2019-01-09T15:25:59.106Z,13.30
2019-01-09T15:28:27.099Z,13.30
2019-01-09T15:30:55.069Z,13.30
2019-01-09T15:33:23.118Z,13.20
2019-01-09T15:35:51.517Z,13.20
2019-01-09T15:38:20.036Z,13.20
2019-01-09T15:40:48.179Z,13.20
2019-01-09T15:43:16.347Z,13.20
2019-01-09T15:45:44.326Z,13.10
2019-01-09T15:48:12.287Z,13.20
2019-01-09T15:50:40.258Z,13.10
2019-01-09T15:53:08.328Z,13.10
2019-01-09T15:55:36.374Z,13.00
2019-01-09T15:58:04.494Z,13.00
2019-01-09T16:00:32.927Z,13.00
2019-01-09T16:03:01.126Z,12.90
2019-01-09T16:05:31.049Z,12.80
2019-01-09T16:07:59.090Z,12.80
2019-01-09T16:10:27.093Z,12.70
2019-01-09T16:12:55.361Z,12.60
2019-01-09T16:15:23.432Z,12.40
2019-01-09T16:17:51.527Z,12.40
2019-01-09T16:20:19.557Z,12.40
2019-01-09T16:22:47.725Z,12.40
2019-01-09T16:25:15.699Z,12.30
2019-01-09T16:27:43.774Z,12.30
2019-01-09T16:30:11.838Z,12.20
2019-01-09T16:32:39.835Z,12.20
2019-01-09T16:35:07.786Z,12.20
2019-01-09T16:37:35.746Z,12.30
2019-01-09T16:40:03.845Z,12.30
2019-01-09T16:42:31.812Z,12.30
2019-01-09T16:44:59.988Z,12.30
2019-01-09T16:47:27.934Z,12.30
2019-01-09T16:49:55.932Z,12.30
2019-01-09T16:52:24.099Z,12.30
2019-01-09T16:54:52.406Z,12.20
2019-01-09T16:57:20.552Z,12.30
2019-01-09T16:59:50.022Z,12.30
2019-01-09T17:02:18.016Z,12.20
2019-01-09T17:04:47.933Z,12.20
2019-01-09T17:07:15.995Z,12.30
2019-01-09T17:09:43.981Z,12.20
2019-01-09T17:12:11.954Z,12.20
2019-01-09T17:14:40.305Z,12.20
2019-01-09T17:17:08.408Z,12.10
2019-01-09T17:19:36.474Z,12.10
2019-01-09T17:22:04.626Z,12.10
2019-01-09T17:24:33.788Z,12.00
2019-01-09T17:27:01.890Z,12.00
2019-01-09T17:29:29.967Z,12.10
2019-01-09T17:31:58.574Z,12.10
2019-01-09T17:34:26.520Z,12.00
2019-01-09T17:36:55.025Z,12.00
2019-01-09T17:39:24.710Z,11.90
2019-01-09T17:41:53.011Z,11.90
2019-01-09T17:44:21.502Z,11.90
2019-01-09T17:46:50.362Z,11.90
2019-01-09T17:49:19.299Z,11.90
2019-01-09T17:51:47.653Z,11.80
2019-01-09T17:54:15.609Z,11.90
2019-01-09T17:56:43.881Z,11.90
2019-01-09T17:59:11.874Z,11.90
2019-01-09T18:01:40.051Z,11.80
2019-01-09T18:04:09.516Z,11.80
2019-01-09T18:06:37.911Z,11.70
2019-01-09T18:09:07.760Z,11.70
2019-01-09T18:11:37.144Z,11.70
2019-01-09T18:14:05.119Z,11.70
2019-01-09T18:16:35.304Z,11.70
2019-01-09T18:19:03.307Z,11.60
2019-01-09T18:21:31.484Z,11.60
2019-01-09T18:23:59.430Z,11.60
2019-01-09T18:26:27.594Z,11.60
2019-01-09T18:28:55.678Z,11.60
2019-01-09T18:31:23.665Z,11.60
2019-01-09T18:33:51.711Z,11.70
2019-01-09T18:36:19.808Z,11.60
2019-01-09T18:38:48.161Z,11.60
2019-01-09T18:41:16.134Z,11.60
2019-01-09T18:43:44.127Z,11.60
2019-01-09T18:46:13.668Z,11.50
2019-01-09T18:48:42.096Z,11.50
2019-01-09T18:51:10.053Z,11.50
2019-01-09T18:53:38.053Z,11.50
2019-01-09T18:56:06.123Z,11.50
2019-01-09T18:58:34.067Z,11.40
2019-01-09T19:01:02.172Z,11.50
2019-01-09T19:03:30.138Z,11.50
2019-01-09T19:05:59.442Z,11.40
2019-01-09T19:08:27.511Z,11.40
2019-01-09T19:10:55.452Z,11.40
2019-01-09T19:13:25.071Z,11.30
2019-01-09T19:15:53.156Z,11.30
2019-01-09T19:18:21.613Z,11.30
2019-01-09T19:20:49.813Z,11.30
2019-01-09T19:23:17.885Z,11.30
2019-01-09T19:25:45.852Z,11.20
2019-01-09T19:28:13.831Z,11.30
2019-01-09T19:30:43.826Z,11.20
2019-01-09T19:33:11.891Z,11.20
2019-01-09T19:35:39.982Z,11.20
2019-01-09T19:38:07.933Z,11.20
2019-01-09T19:40:36.434Z,11.20
2019-01-09T19:43:04.403Z,11.20
2019-01-09T19:45:32.456Z,11.20
2019-01-09T19:48:00.650Z,11.30
2019-01-09T19:50:28.598Z,11.30
2019-01-09T19:52:56.590Z,11.30
2019-01-09T19:55:24.866Z,11.30
2019-01-09T19:57:53.015Z,11.40
2019-01-09T20:00:24.080Z,11.40
2019-01-09T20:02:52.356Z,11.50
2019-01-09T20:05:20.531Z,11.60
2019-01-09T20:07:49.526Z,11.60
2019-01-09T20:10:18.400Z,11.60
2019-01-09T20:12:46.431Z,11.70
2019-01-09T20:15:14.550Z,11.70
2019-01-09T20:17:42.632Z,11.80
2019-01-09T20:20:10.811Z,11.80
2019-01-09T20:22:38.879Z,11.80
2019-01-09T20:25:06.952Z,11.80
2019-01-09T20:27:36.094Z,11.80
2019-01-09T20:30:04.126Z,11.70
2019-01-09T20:56:22.885Z,11.50
2019-01-09T20:58:51.269Z,11.50
2019-01-09T21:01:21.168Z,11.40
2019-01-09T21:03:49.721Z,11.50
2019-01-09T21:06:18.806Z,11.40
2019-01-09T21:08:47.316Z,11.40
2019-01-09T21:11:16.179Z,11.40
2019-01-09T21:13:47.723Z,11.30
2019-01-09T21:16:17.684Z,11.30
2019-01-09T21:18:45.820Z,11.30
2019-01-09T21:21:14.297Z,11.30
2019-01-09T21:23:44.636Z,11.40
2019-01-09T21:26:13.621Z,11.30
2019-01-09T21:28:43.866Z,11.20
2019-01-09T21:31:15.832Z,11.20
2019-01-09T21:33:45.135Z,11.20
2019-01-09T21:36:13.994Z,11.20
2019-01-09T21:38:42.403Z,11.20
2019-01-09T21:41:12.092Z,11.20
2019-01-09T21:43:40.944Z,11.10
2019-01-09T21:46:09.762Z,11.10
2019-01-09T21:48:40.465Z,11.10
2019-01-09T21:51:11.320Z,11.00
2019-01-09T21:53:40.832Z,11.00
2019-01-09T21:56:09.240Z,10.90
2019-01-09T21:58:42.143Z,10.90
2019-01-09T22:01:10.875Z,10.80
2019-01-09T22:03:39.282Z,10.80
2019-01-09T22:06:08.058Z,10.90
2019-01-09T22:08:39.099Z,10.90
2019-01-09T22:11:09.878Z,10.90
2019-01-09T22:13:39.145Z,10.90
2019-01-09T22:16:13.174Z,10.90
2019-01-09T22:18:58.742Z,10.90
2019-01-09T22:21:28.286Z,11.00
2019-01-09T22:23:56.281Z,11.00
2019-01-09T22:26:26.454Z,11.00
2019-01-09T22:28:57.897Z,10.90
2019-01-09T22:31:27.105Z,10.90
2019-01-09T22:33:55.554Z,10.90
2019-01-09T22:36:25.094Z,10.90
2019-01-09T22:38:54.426Z,11.00
2019-01-09T22:41:22.630Z,11.00
2019-01-09T22:43:51.267Z,10.90
2019-01-09T22:46:20.749Z,10.90
2019-01-09T22:48:49.435Z,10.90
2019-01-09T22:51:18.856Z,10.80
2019-01-09T22:53:46.986Z,10.80
2019-01-09T22:56:14.988Z,10.80
2019-01-09T22:58:44.781Z,10.70
2019-01-09T23:01:14.507Z,10.80
2019-01-09T23:03:44.032Z,10.80
2019-01-09T23:06:12.992Z,10.80
2019-01-09T23:08:41.160Z,10.80
2019-01-09T23:35:14.915Z,10.60
2019-01-09T23:37:42.881Z,10.50
2019-01-09T23:40:10.851Z,10.60
2019-01-09T23:42:38.921Z,10.50
2019-01-09T23:45:07.403Z,10.50
2019-01-09T23:47:35.781Z,10.50
2019-01-09T23:50:03.752Z,10.50
2019-01-09T23:52:31.723Z,10.50
2019-01-09T23:54:59.690Z,10.40
2019-01-09T23:57:27.630Z,10.40
2019-01-09T23:59:55.635Z,10.30
